sensor_id;sensor_type;location;lat;lon;timestamp;P1;durP1;ratioP1;P2;durP2;ratioP2
40072;SDS011;25774;52.256;9.356;2023-08-24T00:00:20;8.30;;;1.75;;
40072;SDS011;25774;52.256;9.356;2023-08-24T00:05:13;3.30;;;1.45;;
40072;SDS011;25774;52.256;9.356;2023-08-24T00:07:38;6.00;;;2.00;;
40072;SDS011;25774;52.256;9.356;2023-08-24T00:10:04;1.63;;;1.23;;
40072;SDS011;25774;52.256;9.356;2023-08-24T00:12:32;2.88;;;1.25;;
40072;SDS011;25774;52.256;9.356;2023-08-24T00:14:58;4.32;;;1.10;;
40072;SDS011;25774;52.256;9.356;2023-08-24T00:17:24;4.97;;;1.53;;
40072;SDS011;25774;52.256;9.356;2023-08-24T00:19:49;1.90;;;1.30;;
40072;SDS011;25774;52.256;9.356;2023-08-24T00:22:15;4.43;;;1.13;;
40072;SDS011;25774;52.256;9.356;2023-08-24T00:24:40;10.43;;;1.30;;
40072;SDS011;25774;52.256;9.356;2023-08-24T00:27:05;3.87;;;1.57;;
40072;SDS011;25774;52.256;9.356;2023-08-24T00:29:30;1.97;;;1.00;;
40072;SDS011;25774;52.256;9.356;2023-08-24T00:31:55;4.03;;;1.60;;
40072;SDS011;25774;52.256;9.356;2023-08-24T00:34:22;5.87;;;1.60;;
40072;SDS011;25774;52.256;9.356;2023-08-24T00:39:14;2.45;;;1.42;;
40072;SDS011;25774;52.256;9.356;2023-08-24T00:41:42;3.72;;;1.70;;
40072;SDS011;25774;52.256;9.356;2023-08-24T00:44:08;11.27;;;1.60;;
40072;SDS011;25774;52.256;9.356;2023-08-24T00:49:00;5.55;;;1.60;;
40072;SDS011;25774;52.256;9.356;2023-08-24T00:51:26;4.30;;;1.83;;
40072;SDS011;25774;52.256;9.356;2023-08-24T00:53:53;3.88;;;1.25;;
40072;SDS011;25774;52.256;9.356;2023-08-24T00:56:18;5.15;;;2.22;;
40072;SDS011;25774;52.256;9.356;2023-08-24T00:58:49;4.95;;;1.40;;
40072;SDS011;25774;52.256;9.356;2023-08-24T01:01:14;5.67;;;1.20;;
40072;SDS011;25774;52.256;9.356;2023-08-24T01:03:39;1.60;;;1.10;;
40072;SDS011;25774;52.256;9.356;2023-08-24T01:06:05;5.60;;;1.67;;
40072;SDS011;25774;52.256;9.356;2023-08-24T01:08:30;2.23;;;1.20;;
40072;SDS011;25774;52.256;9.356;2023-08-24T01:10:59;3.87;;;1.27;;
40072;SDS011;25774;52.256;9.356;2023-08-24T01:13:32;2.10;;;1.25;;
40072;SDS011;25774;52.256;9.356;2023-08-24T01:16:04;4.35;;;1.17;;
40072;SDS011;25774;52.256;9.356;2023-08-24T01:18:31;3.63;;;1.25;;
40072;SDS011;25774;52.256;9.356;2023-08-24T01:20:59;2.47;;;1.10;;
40072;SDS011;25774;52.256;9.356;2023-08-24T01:28:15;4.37;;;1.30;;
40072;SDS011;25774;52.256;9.356;2023-08-24T01:30:43;3.67;;;1.55;;
40072;SDS011;25774;52.256;9.356;2023-08-24T01:33:09;4.50;;;1.52;;
40072;SDS011;25774;52.256;9.356;2023-08-24T01:35:37;3.35;;;1.33;;
40072;SDS011;25774;52.256;9.356;2023-08-24T01:38:02;2.33;;;1.00;;
40072;SDS011;25774;52.256;9.356;2023-08-24T01:43:13;2.63;;;1.30;;
40072;SDS011;25774;52.256;9.356;2023-08-24T01:45:38;3.25;;;1.33;;
40072;SDS011;25774;52.256;9.356;2023-08-24T01:48:07;5.28;;;1.00;;
40072;SDS011;25774;52.256;9.356;2023-08-24T01:50:34;2.70;;;1.10;;
40072;SDS011;25774;52.256;9.356;2023-08-24T01:52:59;1.67;;;0.90;;
40072;SDS011;25774;52.256;9.356;2023-08-24T01:55:27;2.72;;;1.20;;
40072;SDS011;25774;52.256;9.356;2023-08-24T01:57:52;3.88;;;1.15;;
40072;SDS011;25774;52.256;9.356;2023-08-24T02:00:18;3.03;;;1.30;;
40072;SDS011;25774;52.256;9.356;2023-08-24T02:02:44;1.87;;;1.10;;
40072;SDS011;25774;52.256;9.356;2023-08-24T02:05:16;2.90;;;1.50;;
40072;SDS011;25774;52.256;9.356;2023-08-24T02:07:41;5.15;;;1.20;;
40072;SDS011;25774;52.256;9.356;2023-08-24T02:10:07;9.87;;;1.53;;
40072;SDS011;25774;52.256;9.356;2023-08-24T02:12:32;1.80;;;1.20;;
40072;SDS011;25774;52.256;9.356;2023-08-24T02:14:58;2.43;;;1.17;;
40072;SDS011;25774;52.256;9.356;2023-08-24T02:17:23;2.38;;;1.10;;
40072;SDS011;25774;52.256;9.356;2023-08-24T02:19:49;5.07;;;1.50;;
40072;SDS011;25774;52.256;9.356;2023-08-24T02:22:14;3.90;;;1.40;;
40072;SDS011;25774;52.256;9.356;2023-08-24T02:24:41;3.43;;;1.20;;
40072;SDS011;25774;52.256;9.356;2023-08-24T02:27:07;2.85;;;1.15;;
40072;SDS011;25774;52.256;9.356;2023-08-24T02:29:32;2.17;;;1.07;;
40072;SDS011;25774;52.256;9.356;2023-08-24T02:31:57;5.73;;;1.43;;
40072;SDS011;25774;52.256;9.356;2023-08-24T02:34:23;2.03;;;1.10;;
40072;SDS011;25774;52.256;9.356;2023-08-24T02:39:15;2.15;;;1.20;;
40072;SDS011;25774;52.256;9.356;2023-08-24T02:41:42;6.70;;;1.45;;
40072;SDS011;25774;52.256;9.356;2023-08-24T02:46:34;1.80;;;1.00;;
40072;SDS011;25774;52.256;9.356;2023-08-24T02:48:59;2.60;;;1.23;;
40072;SDS011;25774;52.256;9.356;2023-08-24T02:51:25;1.70;;;1.27;;
40072;SDS011;25774;52.256;9.356;2023-08-24T02:53:50;2.70;;;1.30;;
40072;SDS011;25774;52.256;9.356;2023-08-24T02:56:16;1.90;;;1.00;;
40072;SDS011;25774;52.256;9.356;2023-08-24T02:58:41;4.83;;;1.20;;
40072;SDS011;25774;52.256;9.356;2023-08-24T03:01:06;5.43;;;1.40;;
40072;SDS011;25774;52.256;9.356;2023-08-24T03:03:33;4.55;;;1.17;;
40072;SDS011;25774;52.256;9.356;2023-08-24T03:06:01;2.47;;;1.20;;
40072;SDS011;25774;52.256;9.356;2023-08-24T03:08:26;4.57;;;1.42;;
40072;SDS011;25774;52.256;9.356;2023-08-24T03:10:51;1.83;;;1.20;;
40072;SDS011;25774;52.256;9.356;2023-08-24T03:13:18;4.07;;;1.13;;
40072;SDS011;25774;52.256;9.356;2023-08-24T03:15:43;2.92;;;1.00;;
40072;SDS011;25774;52.256;9.356;2023-08-24T03:20:36;4.70;;;1.65;;
40072;SDS011;25774;52.256;9.356;2023-08-24T03:23:02;3.90;;;1.40;;
40072;SDS011;25774;52.256;9.356;2023-08-24T03:27:54;4.10;;;1.48;;
40072;SDS011;25774;52.256;9.356;2023-08-24T03:30:20;2.60;;;1.63;;
40072;SDS011;25774;52.256;9.356;2023-08-24T03:32:48;2.22;;;1.42;;
40072;SDS011;25774;52.256;9.356;2023-08-24T03:35:14;2.20;;;1.20;;
40072;SDS011;25774;52.256;9.356;2023-08-24T03:37:41;2.33;;;1.17;;
40072;SDS011;25774;52.256;9.356;2023-08-24T03:40:06;2.75;;;1.60;;
40072;SDS011;25774;52.256;9.356;2023-08-24T03:42:31;2.75;;;1.60;;
40072;SDS011;25774;52.256;9.356;2023-08-24T03:44:59;2.03;;;1.13;;
40072;SDS011;25774;52.256;9.356;2023-08-24T03:47:24;3.15;;;1.10;;
40072;SDS011;25774;52.256;9.356;2023-08-24T03:49:51;1.50;;;1.10;;
40072;SDS011;25774;52.256;9.356;2023-08-24T03:52:16;4.70;;;1.45;;
40072;SDS011;25774;52.256;9.356;2023-08-24T03:54:41;2.47;;;1.20;;
40072;SDS011;25774;52.256;9.356;2023-08-24T03:57:07;6.80;;;1.77;;
40072;SDS011;25774;52.256;9.356;2023-08-24T03:59:32;6.23;;;1.87;;
40072;SDS011;25774;52.256;9.356;2023-08-24T04:02:00;5.83;;;1.70;;
40072;SDS011;25774;52.256;9.356;2023-08-24T04:04:27;7.43;;;1.35;;
40072;SDS011;25774;52.256;9.356;2023-08-24T04:06:52;8.30;;;1.85;;
40072;SDS011;25774;52.256;9.356;2023-08-24T04:09:19;4.07;;;1.60;;
40072;SDS011;25774;52.256;9.356;2023-08-24T04:14:11;3.10;;;1.30;;
40072;SDS011;25774;52.256;9.356;2023-08-24T04:16:36;1.90;;;1.20;;
40072;SDS011;25774;52.256;9.356;2023-08-24T04:19:02;3.73;;;1.90;;
40072;SDS011;25774;52.256;9.356;2023-08-24T04:21:27;4.27;;;1.43;;
40072;SDS011;25774;52.256;9.356;2023-08-24T04:23:52;2.07;;;1.40;;
40072;SDS011;25774;52.256;9.356;2023-08-24T04:26:18;1.63;;;0.98;;
40072;SDS011;25774;52.256;9.356;2023-08-24T04:28:44;3.93;;;1.20;;
40072;SDS011;25774;52.256;9.356;2023-08-24T04:31:09;2.60;;;1.20;;
40072;SDS011;25774;52.256;9.356;2023-08-24T04:33:35;1.70;;;1.13;;
40072;SDS011;25774;52.256;9.356;2023-08-24T04:38:29;2.55;;;1.20;;
40072;SDS011;25774;52.256;9.356;2023-08-24T04:40:55;1.83;;;1.20;;
40072;SDS011;25774;52.256;9.356;2023-08-24T04:43:23;1.55;;;1.10;;
40072;SDS011;25774;52.256;9.356;2023-08-24T04:45:52;1.88;;;1.10;;
40072;SDS011;25774;52.256;9.356;2023-08-24T04:48:21;1.77;;;1.30;;
40072;SDS011;25774;52.256;9.356;2023-08-24T04:50:49;3.67;;;1.50;;
40072;SDS011;25774;52.256;9.356;2023-08-24T04:53:15;1.90;;;1.10;;
40072;SDS011;25774;52.256;9.356;2023-08-24T04:55:41;2.90;;;1.38;;
40072;SDS011;25774;52.256;9.356;2023-08-24T04:58:09;1.75;;;1.30;;
40072;SDS011;25774;52.256;9.356;2023-08-24T05:00:35;2.13;;;1.40;;
40072;SDS011;25774;52.256;9.356;2023-08-24T05:03:03;1.92;;;1.10;;
40072;SDS011;25774;52.256;9.356;2023-08-24T05:05:36;2.83;;;1.10;;
40072;SDS011;25774;52.256;9.356;2023-08-24T05:08:02;4.07;;;1.40;;
40072;SDS011;25774;52.256;9.356;2023-08-24T05:12:55;8.77;;;1.50;;
40072;SDS011;25774;52.256;9.356;2023-08-24T05:15:20;8.43;;;2.00;;
40072;SDS011;25774;52.256;9.356;2023-08-24T05:17:46;2.60;;;1.67;;
40072;SDS011;25774;52.256;9.356;2023-08-24T05:20:11;2.63;;;1.52;;
40072;SDS011;25774;52.256;9.356;2023-08-24T05:22:39;5.33;;;1.60;;
40072;SDS011;25774;52.256;9.356;2023-08-24T05:25:05;2.20;;;1.40;;
40072;SDS011;25774;52.256;9.356;2023-08-24T05:27:30;2.83;;;1.50;;
40072;SDS011;25774;52.256;9.356;2023-08-24T05:29:55;1.83;;;1.10;;
40072;SDS011;25774;52.256;9.356;2023-08-24T05:32:21;1.90;;;1.40;;
40072;SDS011;25774;52.256;9.356;2023-08-24T05:34:48;2.90;;;1.27;;
40072;SDS011;25774;52.256;9.356;2023-08-24T05:37:14;2.88;;;1.67;;
40072;SDS011;25774;52.256;9.356;2023-08-24T05:42:07;3.30;;;1.30;;
40072;SDS011;25774;52.256;9.356;2023-08-24T05:44:34;3.47;;;1.52;;
40072;SDS011;25774;52.256;9.356;2023-08-24T05:49:26;4.30;;;1.33;;
40072;SDS011;25774;52.256;9.356;2023-08-24T05:51:52;3.20;;;1.63;;
40072;SDS011;25774;52.256;9.356;2023-08-24T05:54:18;5.53;;;1.98;;
40072;SDS011;25774;52.256;9.356;2023-08-24T05:59:08;4.20;;;2.30;;
40072;SDS011;25774;52.256;9.356;2023-08-24T06:01:37;3.77;;;2.10;;
40072;SDS011;25774;52.256;9.356;2023-08-24T06:04:08;4.10;;;2.03;;
40072;SDS011;25774;52.256;9.356;2023-08-24T06:06:34;5.78;;;2.50;;
40072;SDS011;25774;52.256;9.356;2023-08-24T06:08:59;2.67;;;1.95;;
40072;SDS011;25774;52.256;9.356;2023-08-24T06:11:25;3.00;;;2.10;;
40072;SDS011;25774;52.256;9.356;2023-08-24T06:16:20;5.00;;;2.30;;
40072;SDS011;25774;52.256;9.356;2023-08-24T06:18:45;4.18;;;2.60;;
40072;SDS011;25774;52.256;9.356;2023-08-24T06:21:12;5.90;;;2.60;;
40072;SDS011;25774;52.256;9.356;2023-08-24T06:26:02;5.70;;;3.03;;
40072;SDS011;25774;52.256;9.356;2023-08-24T06:28:29;6.03;;;2.72;;
40072;SDS011;25774;52.256;9.356;2023-08-24T06:30:59;4.57;;;2.37;;
40072;SDS011;25774;52.256;9.356;2023-08-24T06:33:29;4.47;;;2.50;;
40072;SDS011;25774;52.256;9.356;2023-08-24T06:35:55;3.90;;;2.58;;
40072;SDS011;25774;52.256;9.356;2023-08-24T06:38:20;3.40;;;2.40;;
40072;SDS011;25774;52.256;9.356;2023-08-24T06:40:46;5.97;;;3.40;;
40072;SDS011;25774;52.256;9.356;2023-08-24T06:43:11;6.23;;;3.10;;
40072;SDS011;25774;52.256;9.356;2023-08-24T06:45:36;5.63;;;3.97;;
40072;SDS011;25774;52.256;9.356;2023-08-24T06:48:07;8.80;;;4.20;;
40072;SDS011;25774;52.256;9.356;2023-08-24T06:50:33;6.00;;;4.00;;
40072;SDS011;25774;52.256;9.356;2023-08-24T06:52:58;7.13;;;4.05;;
40072;SDS011;25774;52.256;9.356;2023-08-24T06:55:24;7.38;;;3.55;;
40072;SDS011;25774;52.256;9.356;2023-08-24T06:57:49;5.83;;;4.10;;
40072;SDS011;25774;52.256;9.356;2023-08-24T07:00:18;7.28;;;4.22;;
40072;SDS011;25774;52.256;9.356;2023-08-24T07:02:45;4.20;;;3.50;;
40072;SDS011;25774;52.256;9.356;2023-08-24T07:05:10;7.32;;;4.72;;
40072;SDS011;25774;52.256;9.356;2023-08-24T07:07:37;5.68;;;4.10;;
40072;SDS011;25774;52.256;9.356;2023-08-24T07:10:03;4.90;;;4.17;;
40072;SDS011;25774;52.256;9.356;2023-08-24T07:12:30;8.98;;;4.50;;
40072;SDS011;25774;52.256;9.356;2023-08-24T07:17:21;6.32;;;3.78;;
40072;SDS011;25774;52.256;9.356;2023-08-24T07:19:47;8.43;;;4.83;;
40072;SDS011;25774;52.256;9.356;2023-08-24T07:24:38;5.00;;;3.83;;
40072;SDS011;25774;52.256;9.356;2023-08-24T07:27:03;4.67;;;3.93;;
40072;SDS011;25774;52.256;9.356;2023-08-24T07:29:31;6.47;;;3.60;;
40072;SDS011;25774;52.256;9.356;2023-08-24T07:31:57;4.22;;;3.47;;
40072;SDS011;25774;52.256;9.356;2023-08-24T07:34:24;5.50;;;4.33;;
40072;SDS011;25774;52.256;9.356;2023-08-24T07:36:49;4.95;;;4.00;;
40072;SDS011;25774;52.256;9.356;2023-08-24T07:39:14;6.17;;;3.97;;
40072;SDS011;25774;52.256;9.356;2023-08-24T07:41:43;5.50;;;4.18;;
40072;SDS011;25774;52.256;9.356;2023-08-24T07:44:10;5.65;;;3.58;;
40072;SDS011;25774;52.256;9.356;2023-08-24T07:49:00;4.78;;;3.63;;
40072;SDS011;25774;52.256;9.356;2023-08-24T07:51:25;6.93;;;3.80;;
40072;SDS011;25774;52.256;9.356;2023-08-24T07:53:51;5.28;;;4.13;;
40072;SDS011;25774;52.256;9.356;2023-08-24T07:56:18;8.40;;;4.53;;
40072;SDS011;25774;52.256;9.356;2023-08-24T07:58:45;4.35;;;3.65;;
40072;SDS011;25774;52.256;9.356;2023-08-24T08:03:37;6.07;;;3.53;;
40072;SDS011;25774;52.256;9.356;2023-08-24T08:06:04;5.97;;;3.75;;
40072;SDS011;25774;52.256;9.356;2023-08-24T08:08:30;4.55;;;3.30;;
40072;SDS011;25774;52.256;9.356;2023-08-24T08:11:00;5.30;;;3.80;;
40072;SDS011;25774;52.256;9.356;2023-08-24T08:13:26;3.70;;;2.63;;
40072;SDS011;25774;52.256;9.356;2023-08-24T08:15:51;7.03;;;3.50;;
40072;SDS011;25774;52.256;9.356;2023-08-24T08:18:16;3.37;;;2.73;;
40072;SDS011;25774;52.256;9.356;2023-08-24T08:20:41;3.97;;;3.07;;
40072;SDS011;25774;52.256;9.356;2023-08-24T08:23:08;7.50;;;3.20;;
40072;SDS011;25774;52.256;9.356;2023-08-24T08:25:33;4.05;;;2.90;;
40072;SDS011;25774;52.256;9.356;2023-08-24T08:30:23;3.60;;;2.58;;
40072;SDS011;25774;52.256;9.356;2023-08-24T08:32:48;6.37;;;2.87;;
40072;SDS011;25774;52.256;9.356;2023-08-24T08:35:16;3.63;;;2.20;;
40072;SDS011;25774;52.256;9.356;2023-08-24T08:40:09;3.20;;;2.60;;
40072;SDS011;25774;52.256;9.356;2023-08-24T08:42:35;5.00;;;2.25;;
40072;SDS011;25774;52.256;9.356;2023-08-24T08:45:04;3.85;;;2.78;;
40072;SDS011;25774;52.256;9.356;2023-08-24T08:47:30;3.13;;;2.22;;
40072;SDS011;25774;52.256;9.356;2023-08-24T08:52:22;5.53;;;2.42;;
40072;SDS011;25774;52.256;9.356;2023-08-24T08:57:14;3.28;;;2.15;;
40072;SDS011;25774;52.256;9.356;2023-08-24T08:59:39;2.60;;;1.77;;
40072;SDS011;25774;52.256;9.356;2023-08-24T09:02:06;2.63;;;1.90;;
40072;SDS011;25774;52.256;9.356;2023-08-24T09:04:34;3.63;;;1.80;;
40072;SDS011;25774;52.256;9.356;2023-08-24T09:09:35;3.35;;;1.80;;
40072;SDS011;25774;52.256;9.356;2023-08-24T09:14:26;5.57;;;2.03;;
40072;SDS011;25774;52.256;9.356;2023-08-24T09:19:17;4.47;;;1.80;;
40072;SDS011;25774;52.256;9.356;2023-08-24T09:21:43;5.15;;;2.30;;
40072;SDS011;25774;52.256;9.356;2023-08-24T09:24:08;2.70;;;1.70;;
40072;SDS011;25774;52.256;9.356;2023-08-24T09:26:36;3.40;;;2.00;;
40072;SDS011;25774;52.256;9.356;2023-08-24T09:29:19;3.88;;;2.03;;
40072;SDS011;25774;52.256;9.356;2023-08-24T09:31:45;4.38;;;1.98;;
40072;SDS011;25774;52.256;9.356;2023-08-24T09:34:10;3.87;;;1.70;;
40072;SDS011;25774;52.256;9.356;2023-08-24T09:39:05;4.15;;;2.35;;
40072;SDS011;25774;52.256;9.356;2023-08-24T09:44:04;3.03;;;1.55;;
40072;SDS011;25774;52.256;9.356;2023-08-24T09:46:29;1.67;;;1.30;;
40072;SDS011;25774;52.256;9.356;2023-08-24T09:51:21;4.00;;;1.83;;
40072;SDS011;25774;52.256;9.356;2023-08-24T09:56:13;4.32;;;1.70;;
40072;SDS011;25774;52.256;9.356;2023-08-24T09:58:39;2.45;;;1.60;;
40072;SDS011;25774;52.256;9.356;2023-08-24T10:01:06;3.55;;;1.88;;
40072;SDS011;25774;52.256;9.356;2023-08-24T10:03:32;3.15;;;1.67;;
40072;SDS011;25774;52.256;9.356;2023-08-24T10:05:57;3.42;;;1.95;;
40072;SDS011;25774;52.256;9.356;2023-08-24T10:08:27;2.47;;;1.70;;
40072;SDS011;25774;52.256;9.356;2023-08-24T10:10:53;3.17;;;1.52;;
40072;SDS011;25774;52.256;9.356;2023-08-24T10:13:22;3.10;;;1.60;;
40072;SDS011;25774;52.256;9.356;2023-08-24T10:15:48;2.75;;;1.85;;
40072;SDS011;25774;52.256;9.356;2023-08-24T10:18:17;2.60;;;1.52;;
40072;SDS011;25774;52.256;9.356;2023-08-24T10:20:43;2.70;;;1.75;;
40072;SDS011;25774;52.256;9.356;2023-08-24T10:23:10;5.22;;;1.77;;
40072;SDS011;25774;52.256;9.356;2023-08-24T10:25:36;2.95;;;1.80;;
40072;SDS011;25774;52.256;9.356;2023-08-24T10:28:02;2.35;;;1.60;;
40072;SDS011;25774;52.256;9.356;2023-08-24T10:30:28;2.83;;;1.45;;
40072;SDS011;25774;52.256;9.356;2023-08-24T10:32:55;3.25;;;1.35;;
40072;SDS011;25774;52.256;9.356;2023-08-24T10:35:21;3.22;;;1.73;;
40072;SDS011;25774;52.256;9.356;2023-08-24T10:40:15;5.60;;;1.70;;
40072;SDS011;25774;52.256;9.356;2023-08-24T10:42:55;5.05;;;1.67;;
40072;SDS011;25774;52.256;9.356;2023-08-24T10:45:22;2.60;;;1.30;;
40072;SDS011;25774;52.256;9.356;2023-08-24T10:47:47;4.47;;;1.70;;
40072;SDS011;25774;52.256;9.356;2023-08-24T10:50:16;2.38;;;1.55;;
40072;SDS011;25774;52.256;9.356;2023-08-24T10:52:47;2.53;;;1.60;;
40072;SDS011;25774;52.256;9.356;2023-08-24T10:55:23;2.78;;;1.63;;
40072;SDS011;25774;52.256;9.356;2023-08-24T10:58:00;3.45;;;1.90;;
40072;SDS011;25774;52.256;9.356;2023-08-24T11:00:42;3.67;;;1.58;;
40072;SDS011;25774;52.256;9.356;2023-08-24T11:03:30;2.70;;;1.40;;
40072;SDS011;25774;52.256;9.356;2023-08-24T11:06:19;2.65;;;1.30;;
40072;SDS011;25774;52.256;9.356;2023-08-24T11:08:45;2.40;;;1.48;;
40072;SDS011;25774;52.256;9.356;2023-08-24T11:11:23;3.72;;;1.52;;
40072;SDS011;25774;52.256;9.356;2023-08-24T11:16:51;3.17;;;1.45;;
40072;SDS011;25774;52.256;9.356;2023-08-24T11:19:16;3.70;;;1.38;;
40072;SDS011;25774;52.256;9.356;2023-08-24T11:22:01;2.30;;;1.52;;
40072;SDS011;25774;52.256;9.356;2023-08-24T11:24:40;2.72;;;1.42;;
40072;SDS011;25774;52.256;9.356;2023-08-24T11:27:10;2.20;;;1.25;;
40072;SDS011;25774;52.256;9.356;2023-08-24T11:29:38;2.38;;;1.25;;
40072;SDS011;25774;52.256;9.356;2023-08-24T11:32:03;3.00;;;1.50;;
40072;SDS011;25774;52.256;9.356;2023-08-24T11:34:34;3.63;;;1.63;;
40072;SDS011;25774;52.256;9.356;2023-08-24T11:37:02;2.50;;;1.20;;
40072;SDS011;25774;52.256;9.356;2023-08-24T11:39:34;2.00;;;1.05;;
40072;SDS011;25774;52.256;9.356;2023-08-24T11:42:04;2.70;;;1.40;;
40072;SDS011;25774;52.256;9.356;2023-08-24T11:44:52;2.47;;;1.10;;
40072;SDS011;25774;52.256;9.356;2023-08-24T11:47:19;3.55;;;1.40;;
40072;SDS011;25774;52.256;9.356;2023-08-24T11:49:44;2.30;;;1.20;;
40072;SDS011;25774;52.256;9.356;2023-08-24T11:52:22;5.47;;;1.60;;
40072;SDS011;25774;52.256;9.356;2023-08-24T11:54:51;2.30;;;1.48;;
40072;SDS011;25774;52.256;9.356;2023-08-24T11:57:16;3.47;;;1.40;;
40072;SDS011;25774;52.256;9.356;2023-08-24T11:59:41;2.10;;;1.30;;
40072;SDS011;25774;52.256;9.356;2023-08-24T12:02:07;2.53;;;1.40;;
40072;SDS011;25774;52.256;9.356;2023-08-24T12:04:40;3.00;;;1.23;;
40072;SDS011;25774;52.256;9.356;2023-08-24T12:07:09;2.67;;;1.35;;
40072;SDS011;25774;52.256;9.356;2023-08-24T12:09:44;2.35;;;1.10;;
40072;SDS011;25774;52.256;9.356;2023-08-24T12:12:17;3.75;;;1.15;;
40072;SDS011;25774;52.256;9.356;2023-08-24T12:14:43;2.38;;;1.33;;
40072;SDS011;25774;52.256;9.356;2023-08-24T12:17:09;3.60;;;1.40;;
40072;SDS011;25774;52.256;9.356;2023-08-24T12:19:56;3.78;;;1.50;;
40072;SDS011;25774;52.256;9.356;2023-08-24T12:25:45;3.88;;;1.40;;
40072;SDS011;25774;52.256;9.356;2023-08-24T12:28:13;2.55;;;1.60;;
40072;SDS011;25774;52.256;9.356;2023-08-24T12:30:45;3.80;;;1.65;;
40072;SDS011;25774;52.256;9.356;2023-08-24T12:33:20;2.35;;;1.35;;
40072;SDS011;25774;52.256;9.356;2023-08-24T12:35:46;2.88;;;1.60;;
40072;SDS011;25774;52.256;9.356;2023-08-24T12:38:11;2.50;;;1.50;;
40072;SDS011;25774;52.256;9.356;2023-08-24T12:40:37;3.33;;;1.13;;
40072;SDS011;25774;52.256;9.356;2023-08-24T12:43:02;2.37;;;1.30;;
40072;SDS011;25774;52.256;9.356;2023-08-24T12:45:28;3.45;;;1.42;;
40072;SDS011;25774;52.256;9.356;2023-08-24T12:47:54;4.25;;;1.67;;
40072;SDS011;25774;52.256;9.356;2023-08-24T12:50:21;2.50;;;1.30;;
40072;SDS011;25774;52.256;9.356;2023-08-24T12:52:47;3.42;;;1.40;;
40072;SDS011;25774;52.256;9.356;2023-08-24T12:55:12;2.27;;;1.30;;
40072;SDS011;25774;52.256;9.356;2023-08-24T12:57:38;5.50;;;1.47;;
40072;SDS011;25774;52.256;9.356;2023-08-24T13:00:04;5.55;;;1.50;;
40072;SDS011;25774;52.256;9.356;2023-08-24T13:02:31;2.42;;;1.25;;
40072;SDS011;25774;52.256;9.356;2023-08-24T13:04:56;2.93;;;1.50;;
40072;SDS011;25774;52.256;9.356;2023-08-24T13:07:26;2.50;;;1.50;;
40072;SDS011;25774;52.256;9.356;2023-08-24T13:09:51;3.57;;;1.33;;
40072;SDS011;25774;52.256;9.356;2023-08-24T13:12:16;2.83;;;1.70;;
40072;SDS011;25774;52.256;9.356;2023-08-24T13:14:41;3.20;;;1.37;;
40072;SDS011;25774;52.256;9.356;2023-08-24T13:17:07;4.40;;;2.13;;
40072;SDS011;25774;52.256;9.356;2023-08-24T13:19:32;3.17;;;1.77;;
40072;SDS011;25774;52.256;9.356;2023-08-24T13:21:58;3.27;;;1.80;;
40072;SDS011;25774;52.256;9.356;2023-08-24T13:24:23;3.47;;;1.63;;
40072;SDS011;25774;52.256;9.356;2023-08-24T13:26:50;2.90;;;1.23;;
40072;SDS011;25774;52.256;9.356;2023-08-24T13:29:15;2.85;;;1.40;;
40072;SDS011;25774;52.256;9.356;2023-08-24T13:31:40;5.37;;;1.53;;
40072;SDS011;25774;52.256;9.356;2023-08-24T13:34:05;4.70;;;1.73;;
40072;SDS011;25774;52.256;9.356;2023-08-24T13:36:34;3.47;;;1.70;;
40072;SDS011;25774;52.256;9.356;2023-08-24T13:39:01;3.13;;;1.30;;
40072;SDS011;25774;52.256;9.356;2023-08-24T13:41:27;4.72;;;1.75;;
40072;SDS011;25774;52.256;9.356;2023-08-24T13:43:52;2.22;;;1.50;;
40072;SDS011;25774;52.256;9.356;2023-08-24T13:46:19;2.70;;;1.50;;
40072;SDS011;25774;52.256;9.356;2023-08-24T13:48:44;4.97;;;1.55;;
40072;SDS011;25774;52.256;9.356;2023-08-24T13:51:09;3.03;;;1.87;;
40072;SDS011;25774;52.256;9.356;2023-08-24T13:53:34;3.07;;;1.30;;
40072;SDS011;25774;52.256;9.356;2023-08-24T13:56:03;3.60;;;1.40;;
40072;SDS011;25774;52.256;9.356;2023-08-24T13:58:28;1.92;;;1.02;;
40072;SDS011;25774;52.256;9.356;2023-08-24T14:00:57;2.35;;;1.20;;
40072;SDS011;25774;52.256;9.356;2023-08-24T14:03:22;2.47;;;1.38;;
40072;SDS011;25774;52.256;9.356;2023-08-24T14:05:49;2.40;;;1.33;;
40072;SDS011;25774;52.256;9.356;2023-08-24T14:08:16;3.35;;;1.35;;
40072;SDS011;25774;52.256;9.356;2023-08-24T14:13:09;2.42;;;1.05;;
40072;SDS011;25774;52.256;9.356;2023-08-24T14:15:35;4.87;;;1.33;;
40072;SDS011;25774;52.256;9.356;2023-08-24T14:18:01;3.35;;;1.10;;
40072;SDS011;25774;52.256;9.356;2023-08-24T14:20:26;4.30;;;1.30;;
40072;SDS011;25774;52.256;9.356;2023-08-24T14:22:53;4.93;;;1.20;;
40072;SDS011;25774;52.256;9.356;2023-08-24T14:25:19;2.88;;;1.33;;
40072;SDS011;25774;52.256;9.356;2023-08-24T14:27:44;4.50;;;1.53;;
40072;SDS011;25774;52.256;9.356;2023-08-24T14:30:09;2.57;;;1.40;;
40072;SDS011;25774;52.256;9.356;2023-08-24T14:32:35;3.92;;;1.58;;
40072;SDS011;25774;52.256;9.356;2023-08-24T14:35:00;3.70;;;1.63;;
40072;SDS011;25774;52.256;9.356;2023-08-24T14:37:25;2.63;;;1.40;;
40072;SDS011;25774;52.256;9.356;2023-08-24T14:39:50;3.70;;;1.50;;
40072;SDS011;25774;52.256;9.356;2023-08-24T14:42:16;3.75;;;1.77;;
40072;SDS011;25774;52.256;9.356;2023-08-24T14:44:41;5.77;;;1.70;;
40072;SDS011;25774;52.256;9.356;2023-08-24T14:47:08;3.40;;;1.77;;
40072;SDS011;25774;52.256;9.356;2023-08-24T14:49:34;3.35;;;1.90;;
40072;SDS011;25774;52.256;9.356;2023-08-24T14:52:00;4.18;;;1.73;;
40072;SDS011;25774;52.256;9.356;2023-08-24T14:54:25;3.47;;;1.52;;
40072;SDS011;25774;52.256;9.356;2023-08-24T14:56:50;2.40;;;1.70;;
40072;SDS011;25774;52.256;9.356;2023-08-24T14:59:15;2.73;;;1.70;;
40072;SDS011;25774;52.256;9.356;2023-08-24T15:01:41;3.63;;;1.55;;
40072;SDS011;25774;52.256;9.356;2023-08-24T15:04:06;5.10;;;2.10;;
40072;SDS011;25774;52.256;9.356;2023-08-24T15:06:32;3.65;;;1.75;;
40072;SDS011;25774;52.256;9.356;2023-08-24T15:08:57;3.20;;;1.40;;
40072;SDS011;25774;52.256;9.356;2023-08-24T15:11:26;3.40;;;1.77;;
40072;SDS011;25774;52.256;9.356;2023-08-24T15:13:51;4.97;;;1.75;;
40072;SDS011;25774;52.256;9.356;2023-08-24T15:16:16;4.63;;;1.75;;
40072;SDS011;25774;52.256;9.356;2023-08-24T15:18:42;4.88;;;1.65;;
40072;SDS011;25774;52.256;9.356;2023-08-24T15:21:07;4.77;;;1.70;;
40072;SDS011;25774;52.256;9.356;2023-08-24T15:23:34;4.30;;;1.42;;
40072;SDS011;25774;52.256;9.356;2023-08-24T15:25:59;3.90;;;1.70;;
40072;SDS011;25774;52.256;9.356;2023-08-24T15:28:25;6.05;;;1.80;;
40072;SDS011;25774;52.256;9.356;2023-08-24T15:30:51;5.72;;;1.73;;
40072;SDS011;25774;52.256;9.356;2023-08-24T15:33:17;4.05;;;1.58;;
40072;SDS011;25774;52.256;9.356;2023-08-24T15:35:42;5.43;;;1.88;;
40072;SDS011;25774;52.256;9.356;2023-08-24T15:38:08;4.10;;;1.83;;
40072;SDS011;25774;52.256;9.356;2023-08-24T15:40:33;4.90;;;1.98;;
40072;SDS011;25774;52.256;9.356;2023-08-24T15:43:01;2.95;;;1.75;;
40072;SDS011;25774;52.256;9.356;2023-08-24T15:45:29;3.30;;;1.80;;
40072;SDS011;25774;52.256;9.356;2023-08-24T15:47:55;5.15;;;1.90;;
40072;SDS011;25774;52.256;9.356;2023-08-24T15:50:21;5.18;;;1.70;;
40072;SDS011;25774;52.256;9.356;2023-08-24T15:52:46;4.83;;;2.27;;
40072;SDS011;25774;52.256;9.356;2023-08-24T15:55:12;3.33;;;2.23;;
40072;SDS011;25774;52.256;9.356;2023-08-24T15:57:38;4.60;;;2.63;;
40072;SDS011;25774;52.256;9.356;2023-08-24T16:00:05;5.13;;;2.30;;
40072;SDS011;25774;52.256;9.356;2023-08-24T16:02:35;4.78;;;2.50;;
40072;SDS011;25774;52.256;9.356;2023-08-24T16:05:01;5.57;;;3.03;;
40072;SDS011;25774;52.256;9.356;2023-08-24T16:07:27;8.18;;;2.65;;
40072;SDS011;25774;52.256;9.356;2023-08-24T16:09:52;5.15;;;2.58;;
40072;SDS011;25774;52.256;9.356;2023-08-24T16:12:17;3.43;;;2.30;;
40072;SDS011;25774;52.256;9.356;2023-08-24T16:14:42;6.73;;;2.23;;
40072;SDS011;25774;52.256;9.356;2023-08-24T16:19:35;7.28;;;2.90;;